createdAt,value
2022-08-28T00:00:23.801Z,16.37
2022-08-28T00:02:50.542Z,16.38
2022-08-28T00:05:18.388Z,16.23
2022-08-28T00:07:47.854Z,16.37
2022-08-28T00:10:14.980Z,16.41
2022-08-28T00:12:41.735Z,16.32
2022-08-28T00:15:11.908Z,16.36
2022-08-28T00:17:39.720Z,16.39
2022-08-28T00:20:07.147Z,16.40
2022-08-28T00:22:33.740Z,16.38
2022-08-28T00:25:00.494Z,16.41
2022-08-28T00:27:27.299Z,16.42
2022-08-28T00:29:53.921Z,16.43
2022-08-28T00:32:20.942Z,16.49
2022-08-28T00:34:47.633Z,16.51
2022-08-28T00:37:14.256Z,16.47
2022-08-28T00:39:41.004Z,16.49
2022-08-28T00:42:08.339Z,16.48
2022-08-28T00:44:35.088Z,16.49
2022-08-28T00:47:01.849Z,16.44
2022-08-28T00:49:33.744Z,16.47
2022-08-28T00:52:00.674Z,16.47
2022-08-28T00:54:27.505Z,16.48
2022-08-28T00:56:55.117Z,16.46
2022-08-28T00:59:24.244Z,16.45
2022-08-28T01:01:52.291Z,16.39
2022-08-28T01:04:19.339Z,16.38
2022-08-28T01:06:46.434Z,16.37
2022-08-28T01:09:13.071Z,16.36
2022-08-28T01:11:40.430Z,16.37
2022-08-28T01:14:07.093Z,16.34
2022-08-28T01:16:33.998Z,16.33
2022-08-28T01:19:01.723Z,16.43
2022-08-28T01:21:30.995Z,16.37
2022-08-28T01:24:02.588Z,16.43
2022-08-28T01:26:29.285Z,16.39
2022-08-28T01:28:56.972Z,16.41
2022-08-28T01:31:23.910Z,16.35
2022-08-28T01:33:50.685Z,16.35
2022-08-28T01:36:17.668Z,16.28
2022-08-28T01:38:46.161Z,16.28
2022-08-28T01:41:13.093Z,16.32
2022-08-28T01:43:40.187Z,16.25
2022-08-28T01:46:07.165Z,16.22
2022-08-28T01:48:35.585Z,16.23
2022-08-28T01:51:03.314Z,16.23
2022-08-28T01:53:32.966Z,16.30
2022-08-28T01:56:01.338Z,16.19
2022-08-28T01:58:29.012Z,16.24
2022-08-28T02:00:56.909Z,16.28
2022-08-28T02:03:23.584Z,16.32
2022-08-28T02:05:50.236Z,16.31
2022-08-28T02:08:17.014Z,16.33
2022-08-28T02:10:44.026Z,16.27
2022-08-28T02:13:10.719Z,16.35
2022-08-28T02:15:37.848Z,16.28
2022-08-28T02:18:04.840Z,16.38
2022-08-28T02:20:31.784Z,16.38
2022-08-28T02:22:58.478Z,16.37
2022-08-28T02:25:25.527Z,16.29
2022-08-28T02:27:52.145Z,16.34
2022-08-28T02:30:18.867Z,16.34
2022-08-28T02:32:45.824Z,16.33
2022-08-28T02:35:13.723Z,16.34
2022-08-28T02:37:40.369Z,16.40
2022-08-28T02:40:07.672Z,16.33
2022-08-28T02:42:34.410Z,16.26
2022-08-28T02:45:00.997Z,16.33
2022-08-28T02:47:27.648Z,16.33
2022-08-28T02:49:54.279Z,16.43
2022-08-28T02:52:20.868Z,16.24
2022-08-28T02:54:47.668Z,16.30
2022-08-28T02:57:14.698Z,16.31
2022-08-28T02:59:41.359Z,16.32
2022-08-28T03:02:08.009Z,16.36
2022-08-28T03:04:35.173Z,16.39
2022-08-28T03:07:01.877Z,16.34
2022-08-28T03:09:28.506Z,16.32
2022-08-28T03:11:55.164Z,16.30
2022-08-28T03:14:22.329Z,16.32
2022-08-28T03:16:49.402Z,16.32
2022-08-28T03:19:16.219Z,16.29
2022-08-28T03:21:42.900Z,16.27
2022-08-28T03:24:09.799Z,16.31
2022-08-28T03:26:36.421Z,16.30
2022-08-28T03:29:03.202Z,16.31
2022-08-28T03:31:29.942Z,16.28
2022-08-28T03:33:56.705Z,16.27
2022-08-28T03:36:25.413Z,16.29
2022-08-28T03:38:52.933Z,16.29
2022-08-28T03:41:21.069Z,16.23
2022-08-28T03:43:47.730Z,16.21
2022-08-28T03:46:19.286Z,16.31
2022-08-28T03:48:46.181Z,16.19
2022-08-28T03:51:15.907Z,16.18
2022-08-28T03:53:44.417Z,16.18
2022-08-28T03:56:12.759Z,16.27
2022-08-28T03:58:40.014Z,16.22
2022-08-28T04:01:06.938Z,16.17
2022-08-28T04:03:33.895Z,16.20
2022-08-28T04:06:00.795Z,16.16
2022-08-28T04:08:27.727Z,16.25
2022-08-28T04:10:54.563Z,16.17
2022-08-28T04:13:21.398Z,16.19
2022-08-28T04:16:01.466Z,16.17
2022-08-28T04:18:30.030Z,16.19
2022-08-28T04:21:05.423Z,16.22
2022-08-28T04:23:32.236Z,16.23
2022-08-28T04:25:58.843Z,16.22
2022-08-28T04:28:25.661Z,16.19
2022-08-28T04:30:52.981Z,16.17
2022-08-28T04:33:19.714Z,16.21
2022-08-28T04:35:46.390Z,16.14
2022-08-28T04:38:13.351Z,16.15
2022-08-28T04:40:40.694Z,16.13
2022-08-28T04:43:07.394Z,16.09
2022-08-28T04:45:38.247Z,16.03
2022-08-28T04:48:05.384Z,16.14
2022-08-28T04:50:37.021Z,16.18
2022-08-28T04:53:03.699Z,16.17
2022-08-28T04:55:54.351Z,16.14
2022-08-28T04:58:23.787Z,16.21
2022-08-28T05:00:54.724Z,16.19
2022-08-28T05:03:22.209Z,16.20
2022-08-28T05:05:54.220Z,16.27
2022-08-28T05:08:25.178Z,16.22
2022-08-28T05:10:52.144Z,16.18
2022-08-28T05:13:19.665Z,16.21
2022-08-28T05:15:48.979Z,16.20
2022-08-28T05:18:18.960Z,16.28
2022-08-28T05:20:47.414Z,16.24
2022-08-28T05:23:19.260Z,16.22
2022-08-28T05:25:50.514Z,16.20
2022-08-28T05:28:17.903Z,16.27
2022-08-28T05:30:45.051Z,16.25
2022-08-28T05:33:12.933Z,16.26
2022-08-28T05:35:41.770Z,16.37
2022-08-28T05:38:08.771Z,16.29
2022-08-28T05:40:44.274Z,16.33
2022-08-28T05:43:12.497Z,16.28
2022-08-28T05:45:42.455Z,16.32
2022-08-28T05:48:10.407Z,16.32
2022-08-28T05:50:39.155Z,16.33
2022-08-28T05:53:10.466Z,16.24
2022-08-28T05:55:40.669Z,16.27
2022-08-28T05:58:08.303Z,16.33
2022-08-28T06:00:41.401Z,16.29
2022-08-28T06:03:08.643Z,16.29
2022-08-28T06:05:36.033Z,16.34
2022-08-28T06:08:03.154Z,16.39
2022-08-28T06:10:32.686Z,16.36
2022-08-28T06:13:01.313Z,16.38
2022-08-28T06:15:28.967Z,16.45
2022-08-28T06:17:56.352Z,16.31
2022-08-28T06:20:26.126Z,16.33
2022-08-28T06:22:53.138Z,16.44
2022-08-28T06:25:20.682Z,16.42
2022-08-28T06:27:52.236Z,16.39
2022-08-28T06:30:19.543Z,16.41
2022-08-28T06:38:10.697Z,16.46
2022-08-28T06:41:39.068Z,16.50
2022-08-28T06:44:48.699Z,16.52
2022-08-28T06:51:57.961Z,16.59
2022-08-28T06:57:51.621Z,16.66
2022-08-28T07:00:18.851Z,16.64
2022-08-28T07:02:46.048Z,16.70
2022-08-28T07:05:12.745Z,16.77
2022-08-28T07:07:39.370Z,16.85
2022-08-28T07:10:06.301Z,16.81
2022-08-28T07:12:33.395Z,16.89
2022-08-28T07:15:00.096Z,16.95
2022-08-28T07:17:26.773Z,17.09
2022-08-28T07:19:53.627Z,17.21
2022-08-28T07:22:21.445Z,17.19
2022-08-28T07:24:48.061Z,17.30
2022-08-28T07:27:18.781Z,17.26
2022-08-28T07:29:45.740Z,17.30
2022-08-28T07:32:12.337Z,17.39
2022-08-28T07:34:39.104Z,17.50
2022-08-28T07:37:08.144Z,17.45
2022-08-28T07:39:36.724Z,17.56
2022-08-28T07:42:03.492Z,17.64
2022-08-28T07:44:30.175Z,17.62
2022-08-28T07:46:57.988Z,17.65
2022-08-28T07:49:24.822Z,17.71
2022-08-28T07:51:53.891Z,17.70
2022-08-28T07:54:21.437Z,17.82
2022-08-28T07:56:48.034Z,17.88
2022-08-28T07:59:16.643Z,17.97
2022-08-28T08:01:44.255Z,18.20
2022-08-28T08:04:11.276Z,18.17
2022-08-28T08:06:38.007Z,18.21
2022-08-28T08:09:05.464Z,18.17
2022-08-28T08:11:32.795Z,18.33
2022-08-28T08:14:00.553Z,18.39
2022-08-28T08:16:27.592Z,18.45
2022-08-28T08:18:54.596Z,18.55
2022-08-28T08:21:21.608Z,18.65
2022-08-28T08:23:48.792Z,18.92
2022-08-28T08:26:17.963Z,18.96
2022-08-28T08:28:44.814Z,19.12
2022-08-28T08:31:19.699Z,18.99
2022-08-28T08:33:48.028Z,19.12
2022-08-28T08:36:16.010Z,19.09
2022-08-28T08:38:42.814Z,19.20
2022-08-28T08:41:22.923Z,19.48
2022-08-28T08:43:57.941Z,19.71
2022-08-28T08:46:31.367Z,19.77
2022-08-28T08:49:01.189Z,19.73
2022-08-28T08:51:37.230Z,19.83
2022-08-28T08:54:06.087Z,20.15
2022-08-28T08:56:34.465Z,20.08
2022-08-28T08:59:01.965Z,20.08
2022-08-28T09:01:35.927Z,20.52
2022-08-28T09:04:16.399Z,20.78
2022-08-28T09:07:28.620Z,21.05
2022-08-28T09:09:56.490Z,21.05
2022-08-28T09:12:27.813Z,21.18
2022-08-28T09:14:58.116Z,21.60
2022-08-28T09:17:27.749Z,22.13
2022-08-28T09:19:54.563Z,22.76
2022-08-28T09:22:21.166Z,22.95
2022-08-28T09:24:47.932Z,22.96
2022-08-28T09:27:33.381Z,22.57
2022-08-28T09:30:08.634Z,22.56
2022-08-28T09:32:37.306Z,22.55
2022-08-28T09:35:36.258Z,22.93
2022-08-28T09:38:18.051Z,23.33
2022-08-28T09:40:44.882Z,23.79
2022-08-28T09:43:17.299Z,23.99
2022-08-28T09:45:44.914Z,24.11
2022-08-28T09:48:23.325Z,23.83
2022-08-28T09:51:13.383Z,23.11
2022-08-28T09:53:56.153Z,22.51
2022-08-28T09:56:34.497Z,22.25
2022-08-28T09:59:07.173Z,21.88
2022-08-28T10:01:46.382Z,21.52
2022-08-28T10:04:12.906Z,21.45
2022-08-28T10:06:39.571Z,21.24
2022-08-28T10:09:25.486Z,21.18
2022-08-28T10:12:19.720Z,21.26
2022-08-28T10:14:49.208Z,21.17
2022-08-28T10:17:28.722Z,21.26
2022-08-28T10:20:01.502Z,21.53
2022-08-28T10:22:46.171Z,21.94
2022-08-28T10:25:34.577Z,21.98
2022-08-28T10:28:27.726Z,22.08
2022-08-28T10:31:21.111Z,22.14
2022-08-28T10:34:06.915Z,22.05
2022-08-28T10:36:35.161Z,21.82
2022-08-28T10:39:20.065Z,21.49
2022-08-28T10:41:54.060Z,21.26
2022-08-28T10:44:39.361Z,21.43
2022-08-28T10:47:06.098Z,21.78
2022-08-28T10:49:37.219Z,21.89
2022-08-28T10:52:04.573Z,21.81
2022-08-28T10:54:41.590Z,21.50
2022-08-28T10:57:30.699Z,21.34
2022-08-28T10:59:58.597Z,21.13
2022-08-28T11:02:26.219Z,21.13
2022-08-28T11:04:58.362Z,21.16
2022-08-28T11:07:55.364Z,21.09
2022-08-28T11:10:33.898Z,21.17
2022-08-28T11:13:01.005Z,21.39
2022-08-28T11:15:34.218Z,21.54
2022-08-28T11:18:11.841Z,21.70
2022-08-28T11:20:38.521Z,21.99
2022-08-28T11:23:32.951Z,22.06
2022-08-28T11:26:03.985Z,22.06
2022-08-28T11:28:36.826Z,22.22
2022-08-28T11:31:06.658Z,22.33
2022-08-28T11:33:40.994Z,22.40
2022-08-28T11:36:33.109Z,22.63
2022-08-28T11:39:17.755Z,22.94
2022-08-28T11:42:09.337Z,22.74
2022-08-28T11:44:41.992Z,22.64
2022-08-28T11:47:38.657Z,22.55
2022-08-28T11:50:23.110Z,22.54
2022-08-28T11:53:16.765Z,22.44
2022-08-28T11:56:13.734Z,22.09
2022-08-28T11:59:35.552Z,21.98
2022-08-28T12:02:39.721Z,22.04
2022-08-28T12:05:08.890Z,22.06
2022-08-28T12:07:37.878Z,21.93
2022-08-28T12:10:24.669Z,21.66
2022-08-28T12:13:00.386Z,21.58
2022-08-28T12:15:30.041Z,21.60
2022-08-28T12:18:11.603Z,21.66
2022-08-28T12:20:57.246Z,21.73
2022-08-28T12:23:23.728Z,21.59
2022-08-28T12:25:57.800Z,21.56
2022-08-28T12:28:39.848Z,21.56
2022-08-28T12:31:09.423Z,21.52
2022-08-28T12:34:16.973Z,21.62
2022-08-28T12:36:43.897Z,21.99
2022-08-28T12:39:16.153Z,22.21
2022-08-28T12:41:43.480Z,22.46
2022-08-28T12:44:10.310Z,22.57
2022-08-28T12:46:37.509Z,22.61
2022-08-28T12:49:05.770Z,22.54
2022-08-28T12:51:34.108Z,22.23
2022-08-28T12:54:04.653Z,22.20
2022-08-28T12:56:36.027Z,22.21
2022-08-28T12:59:21.864Z,22.12
2022-08-28T13:01:54.088Z,22.38
2022-08-28T13:04:41.026Z,22.45
2022-08-28T13:07:10.844Z,22.55
2022-08-28T13:09:38.060Z,22.73
2022-08-28T13:12:07.221Z,22.87
2022-08-28T13:14:42.741Z,22.82
2022-08-28T13:17:10.394Z,22.53
2022-08-28T13:19:37.457Z,22.32
2022-08-28T13:22:34.390Z,22.29
2022-08-28T13:25:02.681Z,22.17
2022-08-28T13:27:29.475Z,22.04
2022-08-28T13:30:05.623Z,22.08
2022-08-28T13:32:33.787Z,21.90
2022-08-28T13:35:20.348Z,21.88
2022-08-28T13:37:57.858Z,21.97
2022-08-28T13:43:16.402Z,22.23
2022-08-28T13:45:45.115Z,22.39
2022-08-28T13:48:12.991Z,22.56
2022-08-28T13:50:40.131Z,22.74
2022-08-28T13:53:06.888Z,22.90
2022-08-28T13:55:33.706Z,22.97
2022-08-28T13:58:00.445Z,22.83
2022-08-28T14:00:27.116Z,22.83
2022-08-28T14:02:53.833Z,22.74
2022-08-28T14:05:20.492Z,22.82
2022-08-28T14:07:47.173Z,22.64
2022-08-28T14:10:13.896Z,22.44
2022-08-28T14:12:40.584Z,22.44
2022-08-28T14:15:07.589Z,22.43
2022-08-28T14:17:34.221Z,22.49
2022-08-28T14:20:00.963Z,22.63
2022-08-28T14:22:27.740Z,22.77
2022-08-28T14:24:54.414Z,22.91
2022-08-28T14:27:21.205Z,22.97
2022-08-28T14:29:47.961Z,22.97
2022-08-28T14:32:14.931Z,22.82
2022-08-28T14:34:41.694Z,22.39
2022-08-28T14:37:08.406Z,22.06
2022-08-28T14:39:35.186Z,22.19
2022-08-28T14:42:04.113Z,22.37
2022-08-28T14:44:38.279Z,22.52
2022-08-28T14:47:05.094Z,22.62
2022-08-28T14:49:31.755Z,22.65
2022-08-28T14:51:58.475Z,22.79
2022-08-28T14:54:25.223Z,22.79
2022-08-28T14:56:52.078Z,22.56
2022-08-28T14:59:23.972Z,22.33
2022-08-28T15:01:51.378Z,22.17
2022-08-28T15:04:20.772Z,21.94
2022-08-28T15:06:49.490Z,21.90
2022-08-28T15:09:16.376Z,22.00
2022-08-28T15:11:43.742Z,22.00
2022-08-28T15:14:10.831Z,22.07
2022-08-28T15:16:45.577Z,22.19
2022-08-28T15:19:12.885Z,22.09
2022-08-28T15:21:48.612Z,22.08
2022-08-28T15:24:16.364Z,22.16
2022-08-28T15:26:43.167Z,22.10
2022-08-28T15:29:09.907Z,22.10
2022-08-28T15:31:40.013Z,22.23
2022-08-28T15:34:23.046Z,22.13
2022-08-28T15:36:55.555Z,21.99
2022-08-28T15:39:26.945Z,21.79
2022-08-28T15:41:53.917Z,21.68
2022-08-28T15:44:20.560Z,21.65
2022-08-28T15:46:52.727Z,21.59
2022-08-28T15:49:19.522Z,21.53
2022-08-28T15:51:46.542Z,21.55
2022-08-28T15:54:13.258Z,21.50
2022-08-28T15:56:40.196Z,21.51
2022-08-28T15:59:10.193Z,21.49
2022-08-28T16:01:36.877Z,21.47
2022-08-28T16:04:04.644Z,21.41
2022-08-28T16:06:31.400Z,21.40
2022-08-28T16:08:58.093Z,21.34
2022-08-28T16:11:24.906Z,21.32
2022-08-28T16:13:51.872Z,21.23
2022-08-28T16:16:18.700Z,21.33
2022-08-28T16:18:45.785Z,21.29
2022-08-28T16:21:12.659Z,21.37
2022-08-28T16:23:39.381Z,21.29
2022-08-28T16:26:06.531Z,21.28
2022-08-28T16:28:33.558Z,21.18
2022-08-28T16:31:05.109Z,21.09
2022-08-28T16:33:34.445Z,21.01
2022-08-28T16:36:01.203Z,21.01
2022-08-28T16:38:27.852Z,20.95
2022-08-28T16:40:54.536Z,20.84
2022-08-28T16:43:21.140Z,20.75
2022-08-28T16:45:47.923Z,20.66
2022-08-28T16:48:15.150Z,20.60
2022-08-28T16:50:42.519Z,20.60
2022-08-28T16:53:09.162Z,20.53
2022-08-28T16:55:36.017Z,20.53
2022-08-28T16:58:03.387Z,20.56
2022-08-28T17:00:30.234Z,20.54
2022-08-28T17:02:57.250Z,20.53
2022-08-28T17:05:23.978Z,20.58
2022-08-28T17:07:50.771Z,20.50
2022-08-28T17:10:18.874Z,20.52
2022-08-28T17:12:45.561Z,20.51
2022-08-28T17:15:12.289Z,20.60
2022-08-28T17:17:38.879Z,20.51
2022-08-28T17:20:08.716Z,20.54
2022-08-28T17:22:35.389Z,20.45
2022-08-28T17:25:03.842Z,20.42
2022-08-28T17:27:30.547Z,20.52
2022-08-28T17:29:57.220Z,20.34
2022-08-28T17:32:23.987Z,20.32
2022-08-28T17:34:50.713Z,20.31
2022-08-28T17:37:17.380Z,20.20
2022-08-28T17:39:44.051Z,20.07
2022-08-28T17:42:10.851Z,20.03
2022-08-28T17:44:37.629Z,19.97
2022-08-28T17:47:04.384Z,19.88
2022-08-28T17:49:31.778Z,19.86
2022-08-28T17:51:58.552Z,19.76
2022-08-28T17:54:25.274Z,19.72
2022-08-28T17:56:52.509Z,19.57
2022-08-28T17:59:19.256Z,19.53
2022-08-28T18:01:45.956Z,19.49
2022-08-28T18:04:13.585Z,19.46
2022-08-28T18:06:40.468Z,19.33
2022-08-28T18:09:07.816Z,19.20
2022-08-28T18:11:34.570Z,19.16
2022-08-28T18:14:01.192Z,19.08
2022-08-28T18:16:31.421Z,18.92
2022-08-28T18:19:01.942Z,18.86
2022-08-28T18:21:28.739Z,18.73
2022-08-28T18:23:55.378Z,18.43
2022-08-28T18:26:22.142Z,18.28
2022-08-28T18:28:49.009Z,18.33
2022-08-28T18:31:16.785Z,18.30
2022-08-28T18:33:43.609Z,18.20
2022-08-28T18:36:11.304Z,18.09
2022-08-28T18:38:38.229Z,18.05
2022-08-28T18:41:05.377Z,17.96
2022-08-28T18:43:32.024Z,17.92
2022-08-28T18:45:59.400Z,17.90
2022-08-28T18:48:26.197Z,17.84
2022-08-28T18:50:52.851Z,17.89
2022-08-28T18:53:21.534Z,17.82
2022-08-28T18:55:50.555Z,17.80
2022-08-28T18:58:21.061Z,17.75
2022-08-28T19:00:48.005Z,17.73
2022-08-28T19:03:14.665Z,17.68
2022-08-28T19:05:41.405Z,17.66
2022-08-28T19:08:08.078Z,17.68
2022-08-28T19:10:35.334Z,17.69
2022-08-28T19:13:02.342Z,17.68
2022-08-28T19:15:29.271Z,17.56
2022-08-28T19:17:56.151Z,17.62
2022-08-28T19:20:22.892Z,17.52
2022-08-28T19:22:49.823Z,17.46
2022-08-28T19:25:27.464Z,17.38
2022-08-28T19:27:59.360Z,17.41
2022-08-28T19:30:26.696Z,17.32
2022-08-28T19:32:53.425Z,17.28
2022-08-28T19:35:20.532Z,17.09
2022-08-28T19:37:51.385Z,17.04
2022-08-28T19:40:18.728Z,16.96
2022-08-28T19:42:45.541Z,16.86
2022-08-28T19:45:12.971Z,16.78
2022-08-28T19:47:39.665Z,16.78
2022-08-28T19:50:07.217Z,16.73
2022-08-28T19:52:34.630Z,16.60
2022-08-28T19:55:01.367Z,16.64
2022-08-28T19:57:28.040Z,16.62
2022-08-28T19:59:54.729Z,16.59
2022-08-28T20:02:21.385Z,16.45
2022-08-28T20:04:48.229Z,16.32
2022-08-28T20:07:14.892Z,16.23
2022-08-28T20:09:41.631Z,16.20
2022-08-28T20:12:08.352Z,16.20
2022-08-28T20:14:35.064Z,16.21
2022-08-28T20:17:02.096Z,16.18
2022-08-28T20:19:28.757Z,16.15
2022-08-28T20:21:55.986Z,16.20
2022-08-28T20:24:23.067Z,16.19
2022-08-28T20:26:50.164Z,16.16
2022-08-28T20:29:16.905Z,16.09
2022-08-28T20:31:45.709Z,15.86
2022-08-28T20:34:12.450Z,15.85
2022-08-28T20:36:39.109Z,15.91
2022-08-28T20:39:06.091Z,15.90
2022-08-28T20:41:32.841Z,15.91
2022-08-28T20:43:59.607Z,15.96
2022-08-28T20:46:26.683Z,15.98
2022-08-28T20:48:53.506Z,15.98
2022-08-28T20:51:20.210Z,15.91
2022-08-28T20:53:46.959Z,15.80
2022-08-28T20:56:13.671Z,15.82
2022-08-28T20:58:40.377Z,15.80
2022-08-28T21:01:07.080Z,15.78
2022-08-28T21:03:33.753Z,15.73
2022-08-28T21:06:00.416Z,15.68
2022-08-28T21:08:27.134Z,15.67
2022-08-28T21:10:53.792Z,15.66
2022-08-28T21:13:20.749Z,15.66
2022-08-28T21:15:47.453Z,15.61
2022-08-28T21:18:14.224Z,15.62
2022-08-28T21:20:40.892Z,15.54
2022-08-28T21:23:07.595Z,15.42
2022-08-28T21:25:34.173Z,15.33
2022-08-28T21:28:04.344Z,15.23
2022-08-28T21:30:31.146Z,15.15
2022-08-28T21:32:57.847Z,15.12
2022-08-28T21:35:24.543Z,15.11
2022-08-28T21:37:51.223Z,15.13
2022-08-28T21:40:18.235Z,15.03
2022-08-28T21:42:44.892Z,14.99
2022-08-28T21:45:12.334Z,14.93
2022-08-28T21:47:39.709Z,14.97
2022-08-28T21:50:07.289Z,14.89
2022-08-28T21:52:34.009Z,14.98
2022-08-28T21:55:02.575Z,14.74
2022-08-28T21:57:29.470Z,14.71
2022-08-28T21:59:56.168Z,14.70
2022-08-28T22:02:23.005Z,14.65
2022-08-28T22:04:49.830Z,14.60
2022-08-28T22:07:17.256Z,14.47
2022-08-28T22:09:44.365Z,14.55
2022-08-28T22:12:11.014Z,14.53
2022-08-28T22:14:37.805Z,14.50
2022-08-28T22:17:10.157Z,14.49
2022-08-28T22:19:38.565Z,14.50
2022-08-28T22:22:05.271Z,14.42
2022-08-28T22:24:31.952Z,14.38
2022-08-28T22:26:58.753Z,14.32
2022-08-28T22:29:25.671Z,14.19
2022-08-28T22:31:52.440Z,14.19
2022-08-28T22:34:19.142Z,14.16
2022-08-28T22:36:45.866Z,14.19
2022-08-28T22:39:12.545Z,14.20
2022-08-28T22:41:39.336Z,14.13
2022-08-28T22:44:05.985Z,14.09
2022-08-28T22:46:32.637Z,14.05
2022-08-28T22:48:59.385Z,14.00
2022-08-28T22:51:26.159Z,14.01
2022-08-28T22:53:52.846Z,13.96
2022-08-28T22:56:19.501Z,13.94
2022-08-28T22:58:46.100Z,13.91
2022-08-28T23:01:18.125Z,13.91
2022-08-28T23:03:44.922Z,14.05
2022-08-28T23:06:11.719Z,14.01
2022-08-28T23:08:38.369Z,13.97
2022-08-28T23:11:05.091Z,13.92
2022-08-28T23:13:31.847Z,13.83
2022-08-28T23:15:59.394Z,13.76
2022-08-28T23:18:26.013Z,13.79
2022-08-28T23:20:54.496Z,13.79
2022-08-28T23:23:21.164Z,13.79
2022-08-28T23:25:47.864Z,13.80
2022-08-28T23:28:14.641Z,13.82
2022-08-28T23:30:48.231Z,13.85
2022-08-28T23:33:19.721Z,13.87
2022-08-28T23:35:50.340Z,13.91
2022-08-28T23:38:17.011Z,13.90
2022-08-28T23:40:44.229Z,13.85
2022-08-28T23:43:11.141Z,13.93
2022-08-28T23:45:39.463Z,13.81
2022-08-28T23:48:06.400Z,13.83
2022-08-28T23:50:33.311Z,13.94
2022-08-28T23:53:01.860Z,13.98
2022-08-28T23:55:28.917Z,14.07
2022-08-28T23:57:55.759Z,14.06
